Time;durP1;ratioP1;P1;durP2;ratioP2;P2;SDS_P1;SDS_P2;PMS_P1;PMS_P2;Temp;Humidity;BMP_temperature;BMP_pressure;BME280_temperature;BME280_humidity;BME280_pressure;Samples;Min_cycle;Max_cycle;Signal;HPM_P1;HPM_P2
2024/01/18 00:01:51;;;;;;;29.53;22.73;;;;;;;8.82;100.00;8377.63;5092083;28;20188;-59
2024/01/18 00:04:18;;;;;;;26.83;21.40;;;;;;;8.81;100.00;7738.53;5092687;28;20210;-58
2024/01/18 00:06:45;;;;;;;29.40;20.87;;;;;;;8.69;100.00;9014.06;5092358;28;20645;-58
2024/01/18 00:09:12;;;;;;;33.17;21.07;;;;;;;8.91;100.00;9018.25;5092002;28;20187;-58
2024/01/18 00:11:39;;;;;;;24.67;19.73;;;;;;;8.99;100.00;8700.25;5092167;28;20688;-58
2024/01/18 00:14:06;;;;;;;28.90;21.03;;;;;;;8.85;100.00;9017.03;5092297;28;20245;-58
2024/01/18 00:16:34;;;;;;;26.33;20.77;;;;;;;9.00;100.00;9659.25;5092603;28;20192;-59
2024/01/18 00:19:03;;;;;;;27.17;20.40;;;;;;;8.94;100.00;10297.31;5091896;28;20195;-58
2024/01/18 00:21:30;;;;;;;22.00;19.70;;;;;;;8.88;100.00;10296.09;5091833;28;20180;-58
2024/01/18 00:23:57;;;;;;;32.23;19.83;;;;;;;8.95;100.00;9338.72;5091837;28;20253;-58
2024/01/18 00:26:24;;;;;;;31.97;20.57;;;;;;;9.08;100.00;9660.94;5092499;28;20269;-58
2024/01/18 00:28:51;;;;;;;21.97;19.00;;;;;;;9.07;100.00;12219.22;5091838;28;20184;-58
2024/01/18 00:31:18;;;;;;;23.30;18.77;;;;;;;9.14;100.00;12861.09;5091725;28;20273;-59
2024/01/18 00:33:45;;;;;;;22.93;19.60;;;;;;;9.11;100.00;14140.50;5092027;28;20189;-58
2024/01/18 00:36:13;;;;;;;32.33;19.93;;;;;;;9.16;100.00;14141.91;5091762;28;20191;-59
2024/01/18 00:38:40;;;;;;;27.87;20.13;;;;;;;9.20;100.00;16384.97;5092519;28;20188;-58
2024/01/18 00:41:07;;;;;;;26.53;18.07;;;;;;;9.22;100.00;17667.69;5091678;28;20200;-58
2024/01/18 00:43:35;;;;;;;26.90;18.93;;;;;;;9.21;100.00;18629.06;5091953;28;20187;-57
2024/01/18 00:46:04;;;;;;;23.30;19.20;;;;;;;9.27;100.00;17989.97;5091689;28;20193;-58
2024/01/18 00:48:31;;;;;;;22.90;18.80;;;;;;;9.25;100.00;18951.16;5091933;28;20191;-58
2024/01/18 00:50:58;;;;;;;24.77;19.77;;;;;;;9.32;100.00;18953.69;5094586;28;20257;-59
2024/01/18 00:53:27;;;;;;;26.03;18.87;;;;;;;9.35;100.00;19916.94;5095538;28;20196;-59
2024/01/18 00:55:54;;;;;;;25.27;18.90;;;;;;;9.28;100.00;21518.81;5095631;28;20276;-58
2024/01/18 00:58:21;;;;;;;21.97;17.97;;;;;;;9.34;100.00;22805.16;5095490;28;20237;-58
2024/01/18 01:00:48;;;;;;;27.93;19.20;;;;;;;9.35;100.00;22163.44;5095420;28;20188;-58
2024/01/18 01:03:16;;;;;;;21.10;18.57;;;;;;;9.46;100.00;22489.34;5095377;28;20184;-59
2024/01/18 01:05:43;;;;;;;19.40;17.43;;;;;;;9.45;100.00;24416.00;5095347;28;20184;-59
2024/01/18 01:08:10;;;;;;;19.57;17.57;;;;;;;9.59;100.00;27316.28;5095613;28;20654;-59
2024/01/18 01:10:39;;;;;;;21.47;17.90;;;;;;;9.47;100.00;28918.69;5095387;28;20204;-58
2024/01/18 01:13:06;;;;;;;22.63;17.73;;;;;;;9.44;100.00;26344.19;5095509;28;20237;-58
2024/01/18 01:15:33;;;;;;;25.00;18.43;;;;;;;9.57;100.00;26993.66;5095133;28;20184;-59
2024/01/18 01:18:00;;;;;;;23.43;19.63;;;;;;;9.58;100.00;30533.66;5095477;28;20655;-57
2024/01/18 01:20:27;;;;;;;22.83;17.07;;;;;;;9.42;100.00;31490.63;5095796;28;20184;-59
2024/01/18 01:22:54;;;;;;;19.13;17.17;;;;;;;9.47;100.00;30205.97;5095018;28;20184;-58
2024/01/18 01:25:21;;;;;;;26.37;18.63;;;;;;;9.53;100.00;30852.84;5094921;28;20187;-58
2024/01/18 01:27:50;;;;;;;20.67;18.40;;;;;;;9.62;100.00;29570.31;5094952;28;20223;-57
2024/01/18 01:30:17;;;;;;;20.70;17.50;;;;;;;9.56;100.00;29567.09;5095560;28;20213;-58
2024/01/18 01:32:45;;;;;;;19.63;17.47;;;;;;;9.52;100.00;27634.19;5095124;28;20200;-59
2024/01/18 01:35:12;;;;;;;22.37;18.13;;;;;;;9.65;100.00;26675.69;5095096;28;20196;-58
2024/01/18 01:37:39;;;;;;;24.17;18.00;;;;;;;9.67;100.00;28607.09;5094966;28;20631;-59
2024/01/18 01:40:08;;;;;;;22.50;18.43;;;;;;;9.52;100.00;30530.34;5094999;28;20241;-59
2024/01/18 01:42:35;;;;;;;19.97;17.87;;;;;;;9.67;100.00;32793.22;5094968;28;20192;-58
2024/01/18 01:45:05;;;;;;;21.67;17.13;;;;;;;9.69;100.00;32149.97;5094877;28;20638;-59
2024/01/18 01:47:32;;;;;;;22.50;17.03;;;;;;;9.74;100.00;31830.66;5094569;28;20184;-59
2024/01/18 01:50:00;;;;;;;21.07;17.43;;;;;;;9.67;100.00;31504.53;5094735;28;20698;-58
2024/01/18 01:52:29;;;;;;;18.83;16.70;;;;;;;9.52;100.00;30530.63;5094636;28;20689;-58
2024/01/18 01:54:57;;;;;;;23.13;17.93;;;;;;;9.64;100.00;29249.22;5094399;28;20235;-59
2024/01/18 01:57:25;;;;;;;17.27;15.40;;;;;;;9.55;100.00;28922.63;5094324;28;20242;-57
2024/01/18 01:59:53;;;;;;;18.80;16.73;;;;;;;9.71;100.00;28287.09;5094624;28;20658;-58
2024/01/18 02:02:23;;;;;;;22.17;17.93;;;;;;;9.80;100.00;27969.88;5093113;28;20176;-58
2024/01/18 02:04:50;;;;;;;18.97;16.77;;;;;;;9.83;100.00;30225.09;5094118;28;20179;-59
2024/01/18 02:07:19;;;;;;;19.47;17.43;;;;;;;9.92;100.00;31196.81;5094108;28;20188;-58
2024/01/18 02:09:46;;;;;;;22.83;17.47;;;;;;;9.79;100.00;37315.44;5094071;28;20194;-58
2024/01/18 02:12:16;;;;;;;23.97;17.63;;;;;;;9.86;100.00;41195.88;5094271;28;20261;-58
2024/01/18 02:14:43;;;;;;;21.27;18.43;;;;;;;9.72;100.00;39247.84;5094285;28;20620;-58
2024/01/18 02:17:10;;;;;;;19.60;17.63;;;;;;;9.55;100.00;36655.00;5094292;28;20645;-58
2024/01/18 02:19:38;;;;;;;20.10;18.20;;;;;;;9.86;100.00;35384.03;5094173;28;20237;-58
2024/01/18 02:22:08;;;;;;;23.87;17.67;;;;;;;9.89;100.00;36676.56;5094149;28;20539;-58
2024/01/18 02:24:43;;;;;;;19.70;17.70;;;;;;;9.85;100.00;36996.66;5094141;28;20606;-58
2024/01/18 02:27:11;;;;;;;19.07;17.10;;;;;;;9.86;100.00;37320.41;5094340;28;20252;-58
2024/01/18 02:29:38;;;;;;;22.17;17.40;;;;;;;9.74;100.00;37312.13;5094047;28;20253;-58
2024/01/18 02:32:06;;;;;;;19.63;17.60;;;;;;;9.64;100.00;32469.81;5093919;28;20212;-58
2024/01/18 02:34:38;;;;;;;22.70;17.60;;;;;;;9.67;100.00;32471.28;5093672;28;20176;-58
2024/01/18 02:37:06;;;;;;;17.70;15.90;;;;;;;9.79;100.00;31511.34;5093899;28;20548;-58
2024/01/18 02:39:33;;;;;;;18.40;16.50;;;;;;;9.77;100.00;32154.88;5093808;28;20241;-58
2024/01/18 02:42:01;;;;;;;17.30;15.40;;;;;;;9.73;100.00;31830.09;5093534;28;20233;-58
2024/01/18 02:44:30;;;;;;;17.93;16.17;;;;;;;9.70;100.00;29896.28;5093435;28;20188;-59
2024/01/18 02:46:57;;;;;;;17.90;16.40;;;;;;;9.74;100.00;33119.63;5093665;28;20642;-59
2024/01/18 02:49:24;;;;;;;20.37;17.43;;;;;;;9.68;100.00;32793.78;5093382;28;20238;-58
2024/01/18 02:51:51;;;;;;;19.97;17.83;;;;;;;9.50;100.00;28276.78;5093581;28;20208;-57
2024/01/18 02:54:18;;;;;;;26.43;18.20;;;;;;;9.41;100.00;24735.72;5093063;28;20285;-58
2024/01/18 02:56:45;;;;;;;21.50;16.63;;;;;;;9.51;100.00;23133.59;5093469;28;20188;-58
2024/01/18 02:59:12;;;;;;;24.10;16.40;;;;;;;9.52;100.00;21849.59;5093225;28;20187;-58
2024/01/18 03:01:41;;;;;;;17.03;14.97;;;;;;;9.53;100.00;21528.91;5093058;28;20180;-59
2024/01/18 03:04:08;;;;;;;16.97;15.13;;;;;;;9.52;100.00;20244.28;5093353;28;20695;-59
2024/01/18 03:06:35;;;;;;;17.77;15.90;;;;;;;9.64;100.00;19927.88;5093330;28;20274;-58
2024/01/18 03:09:02;;;;;;;17.07;15.33;;;;;;;9.90;100.00;21222.22;5092992;28;20242;-58
2024/01/18 03:11:29;;;;;;;17.50;15.80;;;;;;;9.90;100.00;29262.75;5093152;28;20586;-58
2024/01/18 03:13:56;;;;;;;18.57;16.57;;;;;;;9.91;100.00;31195.94;5092639;28;20192;-58
2024/01/18 03:16:23;;;;;;;17.60;15.87;;;;;;;9.64;100.00;31825.50;5092873;28;20184;-59
2024/01/18 03:18:52;;;;;;;19.47;17.23;;;;;;;9.74;100.00;30864.56;5093927;28;20569;-58
2024/01/18 03:21:19;;;;;;;18.60;16.83;;;;;;;9.79;100.00;33445.22;5092690;28;20180;-59
2024/01/18 03:23:46;;;;;;;19.83;16.90;;;;;;;9.72;100.00;37310.78;5092914;28;20666;-58
2024/01/18 03:26:13;;;;;;;18.83;17.07;;;;;;;9.60;100.00;34401.03;5092826;28;20206;-58
2024/01/18 03:28:40;;;;;;;19.07;17.20;;;;;;;9.39;100.00;24734.81;5092606;28;20184;-58
2024/01/18 03:31:11;;;;;;;18.97;17.03;;;;;;;9.38;100.00;24413.06;5092789;28;20616;-58
2024/01/18 03:33:39;;;;;;;19.00;16.47;;;;;;;9.34;100.00;19275.16;5092477;28;20188;-59
2024/01/18 03:36:10;;;;;;;18.93;17.03;;;;;;;9.49;100.00;20243.31;5092598;28;20275;-58
2024/01/18 03:38:37;;;;;;;17.27;15.60;;;;;;;9.56;100.00;22172.16;5092444;28;20184;-58
2024/01/18 03:41:04;;;;;;;19.23;16.37;;;;;;;9.60;100.00;25708.56;5092696;28;20612;-58
2024/01/18 03:43:31;;;;;;;18.40;16.60;;;;;;;9.64;100.00;27961.97;5092697;28;20188;-58
2024/01/18 03:45:58;;;;;;;18.97;17.03;;;;;;;9.62;100.00;29892.22;5092648;28;20241;-58
2024/01/18 03:48:25;;;;;;;18.67;16.63;;;;;;;9.60;100.00;27638.47;5092237;28;20184;-58
2024/01/18 03:50:52;;;;;;;18.17;16.33;;;;;;;9.68;100.00;29895.19;5092425;28;20621;-59
2024/01/18 03:53:21;;;;;;;18.43;16.00;;;;;;;9.72;100.00;30863.19;5092443;28;20180;-59
2024/01/18 03:55:48;;;;;;;20.17;17.60;;;;;;;9.77;100.00;35378.34;5091975;28;20762;-59
2024/01/18 03:58:15;;;;;;;21.43;18.37;;;;;;;9.58;100.00;52499.69;5092022;28;20241;-59
2024/01/18 04:00:42;;;;;;;19.67;17.47;;;;;;;9.25;100.00;61875.72;5092052;28;20192;-59
2024/01/18 04:03:09;;;;;;;20.73;17.67;;;;;;;9.16;100.00;67717.28;5092278;28;20594;-58
2024/01/18 04:05:36;;;;;;;25.43;21.53;;;;;;;9.12;100.00;73572.28;5092012;28;20291;-59
2024/01/18 04:08:04;;;;;;;26.07;22.13;;;;;;;8.98;100.00;76487.78;5092322;28;20536;-59
2024/01/18 04:10:32;;;;;;;27.53;20.67;;;;;;;8.94;100.00;77786.88;5092074;28;20206;-57
2024/01/18 04:12:59;;;;;;;29.30;22.50;;;;;;;8.67;100.00;74493.56;5092266;28;20208;-58
2024/01/18 04:15:26;;;;;;;24.70;21.67;;;;;;;8.67;100.00;68310.22;5091915;28;20242;-58
2024/01/18 04:17:53;;;;;;;28.27;20.60;;;;;;;8.53;100.00;63746.81;5092159;28;20180;-59
2024/01/18 04:20:23;;;;;;;21.23;19.03;;;;;;;8.58;100.00;61805.09;5092039;28;20695;-58
2024/01/18 04:22:50;;;;;;;18.97;16.97;;;;;;;8.41;100.00;46576.38;5091695;28;20180;-58
2024/01/18 04:25:17;;;;;;;24.33;19.37;;;;;;;8.30;100.00;41083.16;5096270;28;20719;-58
2024/01/18 04:27:45;;;;;;;20.10;18.10;;;;;;;8.39;100.00;42056.91;5098600;28;20245;-57
2024/01/18 04:30:14;;;;;;;19.70;17.63;;;;;;;8.41;100.00;43993.75;5098415;28;20184;-58
2024/01/18 04:32:41;;;;;;;19.63;17.67;;;;;;;8.39;100.00;46574.75;5098325;28;20212;-57
2024/01/18 04:35:09;;;;;;;21.63;18.93;;;;;;;8.27;100.00;47210.63;5098320;28;20184;-57
2024/01/18 04:37:36;;;;;;;22.70;18.07;;;;;;;8.16;100.00;43652.25;5098714;28;20369;-57
2024/01/18 04:40:03;;;;;;;21.57;19.20;;;;;;;8.14;100.00;45908.84;5098741;28;20640;-57
2024/01/18 04:42:30;;;;;;;22.93;19.10;;;;;;;7.93;100.00;48473.56;5098594;28;20207;-58
2024/01/18 04:44:59;;;;;;;20.80;18.33;;;;;;;7.81;100.00;38151.34;5098330;28;20229;-59
2024/01/18 04:47:26;;;;;;;31.83;19.07;;;;;;;7.70;100.00;32679.00;5098274;28;20324;-58
2024/01/18 04:49:53;;;;;;;30.50;22.67;;;;;;;7.57;100.00;32992.50;5098621;28;20646;-57
2024/01/18 04:52:20;;;;;;;29.63;22.17;;;;;;;7.53;100.00;31705.81;5098162;28;20208;-58
2024/01/18 04:54:47;;;;;;;27.17;21.53;;;;;;;7.43;100.00;28492.00;5098239;28;20613;-58
2024/01/18 04:57:15;;;;;;;27.40;21.07;;;;;;;7.29;100.00;26561.78;5098463;28;20187;-58
2024/01/18 04:59:42;;;;;;;29.03;23.30;;;;;;;7.15;100.00;27195.69;5098125;28;20184;-59
2024/01/18 05:02:11;;;;;;;24.23;20.63;;;;;;;7.14;100.00;24633.13;5098118;28;20180;-58
2024/01/18 05:04:38;;;;;;;28.57;20.93;;;;;;;7.17;100.00;20794.91;5098454;28;20559;-58
2024/01/18 05:07:05;;;;;;;33.87;21.90;;;;;;;7.07;100.00;15998.53;5098129;28;20238;-57
2024/01/18 05:09:32;;;;;;;29.93;22.17;;;;;;;7.00;100.00;17273.50;5098499;28;20286;-58
2024/01/18 05:11:59;;;;;;;36.13;23.37;;;;;;;7.08;100.00;21840.66;5097933;28;20208;-58
2024/01/18 05:14:26;;;;;;;35.80;22.10;;;;;;;7.07;100.00;22280.25;5097889;28;20196;-58
2024/01/18 05:16:55;;;;;;;33.77;22.93;;;;;;;7.10;100.00;25714.34;5098081;28;20229;-58
2024/01/18 05:19:23;;;;;;;32.43;24.33;;;;;;;7.29;100.00;27776.28;5097994;28;20183;-58
2024/01/18 05:21:51;;;;;;;33.23;24.93;;;;;;;7.26;100.00;29648.19;5097941;28;20176;-57
2024/01/18 05:24:18;;;;;;;26.37;21.43;;;;;;;7.24;100.00;30203.06;5097994;28;20188;-58
2024/01/18 05:26:46;;;;;;;29.57;23.90;;;;;;;7.07;100.00;28898.97;5098329;28;20286;-58
2024/01/18 05:29:13;;;;;;;38.50;24.40;;;;;;;7.07;100.00;26030.66;5098279;28;20187;-57
2024/01/18 05:31:40;;;;;;;34.03;24.33;;;;;;;7.03;100.00;23783.03;5098119;28;20211;-59
2024/01/18 05:34:07;;;;;;;26.57;22.00;;;;;;;7.15;100.00;28207.03;5097846;28;20188;-58
2024/01/18 05:36:36;;;;;;;31.67;24.00;;;;;;;7.17;100.00;29991.56;5096299;28;20188;-58
2024/01/18 05:39:04;;;;;;;34.00;25.53;;;;;;;7.13;100.00;30044.50;5094613;28;20192;-57
2024/01/18 05:41:31;;;;;;;39.80;27.10;;;;;;;7.15;100.00;29759.75;5095631;28;20668;-58
2024/01/18 05:43:58;;;;;;;36.87;26.13;;;;;;;7.24;100.00;27533.38;5094682;28;20192;-57
2024/01/18 05:46:26;;;;;;;39.80;28.30;;;;;;;7.30;100.00;28084.53;5094507;28;20184;-58
2024/01/18 05:48:53;;;;;;;40.80;30.57;;;;;;;7.31;100.00;30084.38;5094804;28;20627;-58
2024/01/18 05:51:20;;;;;;;37.60;27.97;;;;;;;7.32;100.00;29225.25;5094718;28;20543;-59
2024/01/18 05:53:48;;;;;;;36.57;28.57;;;;;;;7.50;100.00;27746.59;5094603;28;20208;-59
2024/01/18 05:56:15;;;;;;;40.70;26.83;;;;;;;7.68;100.00;26370.16;5094277;28;20227;-60
2024/01/18 05:58:42;;;;;;;38.17;29.10;;;;;;;7.85;100.00;24915.63;5094162;28;20199;-58
2024/01/18 06:01:10;;;;;;;45.80;33.07;;;;;;;7.96;100.00;26979.88;5094530;28;20234;-58
2024/01/18 06:03:37;;;;;;;38.47;30.67;;;;;;;7.92;100.00;29996.44;5094449;28;20689;-59
2024/01/18 06:06:04;;;;;;;34.40;26.20;;;;;;;8.01;100.00;28010.09;5094444;28;20192;-58
2024/01/18 06:08:31;;;;;;;39.50;30.60;;;;;;;8.03;100.00;26687.81;5094027;28;20184;-59
2024/01/18 06:11:01;;;;;;;36.00;26.93;;;;;;;7.96;100.00;24121.59;5093983;28;20192;-58
2024/01/18 06:13:28;;;;;;;51.50;33.17;;;;;;;7.97;100.00;23977.03;5093918;28;20204;-58
2024/01/18 06:15:55;;;;;;;53.93;35.07;;;;;;;7.99;100.00;24671.38;5094118;28;20203;-59
2024/01/18 06:18:23;;;;;;;56.75;37.25;;;;;;;8.05;100.00;25636.09;5093737;28;20129;-58
2024/01/18 06:20:50;;;;;;;61.70;39.30;;;;;;;7.82;100.00;27229.03;5093664;28;20271;-58
2024/01/18 06:23:17;;;;;;;53.67;36.37;;;;;;;7.65;100.00;25937.97;5093574;28;20237;-58
2024/01/18 06:25:44;;;;;;;48.73;35.13;;;;;;;7.97;100.00;24350.16;5093828;28;20265;-58
2024/01/18 06:28:13;;;;;;;43.47;27.53;;;;;;;8.12;100.00;22754.00;5093827;28;20184;-59
2024/01/18 06:30:43;;;;;;;37.27;26.63;;;;;;;8.15;100.00;20512.69;5093602;28;20208;-58
2024/01/18 06:33:11;;;;;;;38.53;26.77;;;;;;;8.40;100.00;18600.41;5093760;28;20642;-58
2024/01/18 06:35:38;;;;;;;28.00;20.93;;;;;;;8.61;100.00;14766.34;5093897;28;20286;-59
2024/01/18 06:38:05;;;;;;;40.53;27.07;;;;;;;8.68;100.00;15088.38;5093520;28;20638;-58
2024/01/18 06:40:32;;;;;;;45.93;29.63;;;;;;;8.71;100.00;17010.16;5093176;28;20229;-57
2024/01/18 06:43:00;;;;;;;42.60;28.27;;;;;;;8.91;100.00;18298.09;5093562;28;20536;-57
2024/01/18 06:45:28;;;;;;;40.97;27.90;;;;;;;9.03;100.00;18302.31;5093606;28;20219;-57
2024/01/18 06:47:55;;;;;;;44.83;29.67;;;;;;;9.14;100.00;20550.88;5092606;28;20180;-56
2024/01/18 06:50:23;;;;;;;51.03;31.27;;;;;;;9.05;100.00;25040.44;5093436;28;20257;-57
2024/01/18 06:52:51;;;;;;;44.90;31.43;;;;;;;9.15;100.00;24723.84;5092978;28;20200;-59
2024/01/18 06:55:18;;;;;;;47.03;30.03;;;;;;;9.29;100.00;21519.00;5092767;28;20237;-57
2024/01/18 06:57:48;;;;;;;52.37;33.70;;;;;;;9.39;100.00;18635.31;5093083;28;20634;-57
2024/01/18 07:00:19;;;;;;;53.10;34.37;;;;;;;9.44;100.00;17995.84;5092634;28;20270;-58
2024/01/18 07:02:48;;;;;;;63.17;37.23;;;;;;;9.11;100.00;16061.91;5093023;28;20631;-58
2024/01/18 07:05:15;;;;;;;66.23;37.83;;;;;;;9.34;100.00;16709.94;5092842;28;20200;-57
2024/01/18 07:07:42;;;;;;;54.93;35.23;;;;;;;9.51;100.00;16395.03;5093078;28;20188;-58
2024/01/18 07:10:09;;;;;;;63.13;35.97;;;;;;;9.54;100.00;16395.84;5092736;28;20184;-58
2024/01/18 07:12:37;;;;;;;50.77;34.13;;;;;;;9.66;100.00;13835.53;5093129;28;20203;-58
2024/01/18 07:15:07;;;;;;;49.53;31.43;;;;;;;9.81;100.00;11597.00;5093028;28;20184;-58
2024/01/18 07:17:34;;;;;;;47.37;31.63;;;;;;;9.92;100.00;9678.47;5092804;28;20635;-59
2024/01/18 07:20:02;;;;;;;39.13;27.40;;;;;;;9.96;100.00;7758.88;5092546;28;20226;-58
2024/01/18 07:22:29;;;;;;;32.03;23.93;;;;;;;10.05;100.00;6800.59;5093241;28;20261;-58
2024/01/18 07:24:56;;;;;;;34.27;24.30;;;;;;;10.32;100.00;6484.97;5092783;28;20225;-58
2024/01/18 07:27:24;;;;;;;28.77;23.53;;;;;;;10.50;100.00;7128.09;5092962;28;20192;-58
2024/01/18 07:29:51;;;;;;;26.87;21.07;;;;;;;10.65;100.00;8411.81;5092857;28;20180;-59
2024/01/18 07:32:18;;;;;;;29.43;24.17;;;;;;;10.72;100.00;9053.94;5092417;28;20207;-58
2024/01/18 07:34:46;;;;;;;25.80;19.60;;;;;;;11.03;100.00;13873.25;5092241;28;20188;-58
2024/01/18 07:37:14;;;;;;;21.20;18.70;;;;;;;11.13;100.00;20305.47;5092133;28;20241;-58
2024/01/18 07:39:42;;;;;;;22.87;19.20;;;;;;;11.23;100.00;22562.94;5092606;28;20188;-58
2024/01/18 07:42:09;;;;;;;23.97;18.23;;;;;;;11.33;100.00;24500.13;5092509;28;20662;-59
2024/01/18 07:44:38;;;;;;;19.13;17.33;;;;;;;11.53;100.00;23864.22;5092312;28;20188;-58
2024/01/18 07:47:07;;;;;;;23.13;18.53;;;;;;;11.61;100.00;26770.41;5092288;28;20241;-58
2024/01/18 07:49:34;;;;;;;21.80;18.50;;;;;;;11.84;100.00;28718.91;5092300;28;20277;-59
2024/01/18 07:52:01;;;;;;;20.20;18.20;;;;;;;11.94;100.00;31632.28;5092105;28;20200;-58
2024/01/18 07:54:29;;;;;;;20.40;17.70;;;;;;;12.08;100.00;36170.56;5091597;28;20243;-58
2024/01/18 07:56:56;;;;;;;22.87;18.93;;;;;;;12.13;100.00;39738.22;5091901;28;20241;-59
2024/01/18 07:59:24;;;;;;;21.07;18.30;;;;;;;12.14;100.00;37470.03;5091317;28;20249;-59
2024/01/18 08:01:51;;;;;;;20.93;17.80;;;;;;;12.12;100.00;37469.03;5092137;28;20180;-58
2024/01/18 08:04:18;;;;;;;19.60;17.23;;;;;;;12.28;100.00;35859.88;5091848;28;20248;-58
2024/01/18 08:06:45;;;;;;;18.97;17.07;;;;;;;12.39;100.00;40080.16;5091828;28;20191;-58
2024/01/18 08:09:12;;;;;;;18.57;16.80;;;;;;;12.49;100.00;42034.19;5091832;28;20188;-59
2024/01/18 08:11:41;;;;;;;20.30;18.40;;;;;;;12.59;100.00;44964.66;5092018;28;20180;-59
2024/01/18 08:14:08;;;;;;;20.20;18.20;;;;;;;12.59;100.00;50493.38;5091622;28;20256;-58
2024/01/18 08:16:35;;;;;;;18.93;17.07;;;;;;;12.77;100.00;54092.22;5091935;28;20224;-58
2024/01/18 08:19:02;;;;;;;17.70;15.90;;;;;;;12.91;100.00;59324.53;5091666;28;20636;-59
2024/01/18 08:21:29;;;;;;;18.53;16.13;;;;;;;12.94;100.00;64228.00;5091864;28;20561;-58
2024/01/18 08:23:56;;;;;;;19.63;17.40;;;;;;;13.09;100.00;65880.22;5106137;28;20191;-58
2024/01/18 08:26:23;;;;;;;18.67;16.87;;;;;;;13.16;100.00;73422.94;5111871;28;20202;-58
2024/01/18 08:28:52;;;;;;;18.53;16.73;;;;;;;13.24;100.00;76058.03;5112480;28;20247;-57
2024/01/18 08:31:19;;;;;;;16.93;15.10;;;;;;;13.39;100.00;78704.63;5112255;28;20565;-59
2024/01/18 08:33:46;;;;;;;16.73;14.67;;;;;;;13.42;100.00;78051.50;5111771;28;20287;-58
2024/01/18 08:36:14;;;;;;;15.73;14.60;;;;;;;13.66;100.00;84334.00;5112179;28;20184;-58
2024/01/18 08:38:42;;;;;;;17.50;15.70;;;;;;;13.86;100.00;89306.22;5112674;28;20183;-58
2024/01/18 08:41:10;;;;;;;16.63;14.97;;;;;;;13.96;100.00;111496.38;5112867;28;20213;-58
2024/01/18 08:43:37;;;;;;;17.07;15.47;;;;;;;14.02;100.00;124147.16;5111849;28;20228;-57
2024/01/18 08:46:07;;;;;;;15.90;14.53;;;;;;;14.12;100.00;125835.13;5111752;28;20183;-58
2024/01/18 08:48:34;;;;;;;15.47;14.27;;;;;;;14.11;100.00;122501.13;5112088;28;20498;-59
2024/01/18 08:51:02;;;;;;;15.00;13.73;;;;;;;14.15;100.00;121510.09;5112034;28;20531;-59
2024/01/18 08:53:30;;;;;;;14.60;13.40;;;;;;;14.36;100.00;147490.69;5111454;28;20207;-59
2024/01/18 08:55:58;;;;;;;14.57;13.40;;;;;;;14.50;100.00;149682.16;5111947;28;20234;-59
2024/01/18 08:58:25;;;;;;;14.17;13.03;;;;;;;14.54;100.00;149692.31;5111787;28;20197;-58
2024/01/18 09:00:52;;;;;;;13.43;12.53;;;;;;;14.56;100.00;149697.34;5112157;28;20188;-59
2024/01/18 09:03:20;;;;;;;14.70;13.23;;;;;;;14.66;100.00;149722.72;5111614;28;20187;-58
2024/01/18 09:05:47;;;;;;;13.77;12.67;;;;;;;14.60;100.00;149708.78;5112117;28;20241;-58
2024/01/18 09:08:14;;;;;;;14.67;12.20;;;;;;;14.58;100.00;149702.44;5111582;28;20187;-59
2024/01/18 09:10:41;;;;;;;12.87;12.03;;;;;;;14.44;100.00;149668.19;5113248;28;20187;-59
2024/01/18 09:13:08;;;;;;;13.87;12.87;;;;;;;14.46;100.00;149673.31;5116064;28;20569;-58
2024/01/18 09:15:36;;;;;;;13.60;12.57;;;;;;;14.50;100.00;149682.16;5115830;27;20663;-57
2024/01/18 09:18:04;;;;;;;12.73;11.90;;;;;;;14.45;100.00;149670.75;5117375;28;20190;-59
2024/01/18 09:20:32;;;;;;;12.77;11.60;;;;;;;14.29;100.00;149628.88;5115566;28;20606;-58
2024/01/18 09:23:00;;;;;;;12.00;11.20;;;;;;;14.29;100.00;144373.03;5115545;28;20183;-58
2024/01/18 09:25:27;;;;;;;12.50;11.60;;;;;;;14.23;100.00;139892.78;5115236;28;20197;-57
2024/01/18 09:27:54;;;;;;;11.90;11.00;;;;;;;14.29;100.00;132881.75;5115341;28;20192;-57
2024/01/18 09:30:23;;;;;;;13.80;12.53;;;;;;;14.19;100.00;134531.50;5115093;28;20187;-58
2024/01/18 09:32:50;;;;;;;12.33;11.43;;;;;;;14.30;100.00;135559.81;5115089;28;20199;-58
2024/01/18 09:35:17;;;;;;;12.00;10.90;;;;;;;14.51;100.00;136612.03;5115081;28;20223;-58
2024/01/18 09:37:46;;;;;;;11.13;10.03;;;;;;;14.60;100.00;149707.50;5115630;28;20270;-58
2024/01/18 09:40:15;;;;;;;10.63;10.00;;;;;;;14.84;100.00;149767.13;5115340;28;20236;-58
2024/01/18 09:42:46;;;;;;;10.30;9.53;;;;;;;15.19;100.00;149854.66;5115248;28;20183;-58
2024/01/18 09:45:15;;;;;;;14.43;9.80;;;;;;;15.66;100.00;149973.94;5115384;28;20634;-57
2024/01/18 09:47:42;;;;;;;9.30;8.90;;;;;;;16.29;100.00;150131.38;5114978;28;20183;-57
2024/01/18 09:50:10;;;;;;;9.03;8.50;;;;;;;17.17;100.00;150352.41;5114704;28;20191;-58
2024/01/18 09:52:37;;;;;;;8.80;8.23;;;;;;;17.57;100.00;150454.03;5114540;28;20187;-58
2024/01/18 09:55:09;;;;;;;7.87;7.43;;;;;;;17.44;100.00;150421.00;5114506;28;20287;-57
2024/01/18 09:57:41;;;;;;;7.23;6.87;;;;;;;17.49;100.00;150433.69;5114764;28;20535;-57
2024/01/18 10:00:14;;;;;;;7.47;6.70;;;;;;;17.59;100.00;150459.19;5114612;28;20196;-58
2024/01/18 10:02:42;;;;;;;7.30;6.80;;;;;;;17.77;100.00;150504.97;5114384;28;20187;-57
2024/01/18 10:05:13;;;;;;;7.70;7.30;;;;;;;17.91;100.00;150539.22;5114910;28;20599;-58
2024/01/18 10:07:41;;;;;;;13.77;6.73;;;;;;;17.76;100.00;150501.13;5114621;28;20629;-58
2024/01/18 10:10:14;;;;;;;7.13;6.53;;;;;;;18.23;100.00;150619.34;5114833;28;20219;-58
2024/01/18 10:12:44;;;;;;;6.30;6.00;;;;;;;18.64;100.00;150722.38;5114220;28;20183;-59
2024/01/18 10:15:11;;;;;;;6.20;6.00;;;;;;;18.98;100.00;150808.88;5114474;28;20210;-59
2024/01/18 10:17:39;;;;;;;5.97;5.68;;;;;;;19.27;100.00;150881.41;5114230;28;20244;-58
2024/01/18 10:20:13;;;;;;;6.00;5.65;;;;;;;20.46;100.00;151181.91;5114350;28;20643;-58
2024/01/18 10:22:43;;;;;;;5.07;4.88;;;;;;;21.61;100.00;151469.88;5113868;28;20685;-58
2024/01/18 10:25:15;;;;;;;4.50;4.30;;;;;;;22.02;100.00;151574.50;5114603;28;20669;-59
2024/01/18 10:27:42;;;;;;;4.97;4.78;;;;;;;21.85;100.00;151531.09;5134911;27;20632;-58
2024/01/18 10:30:12;;;;;;;5.35;5.05;;;;;;;22.22;100.00;151625.50;5134772;27;20207;-59
2024/01/18 10:32:39;;;;;;;5.32;4.40;;;;;;;22.91;96.96;151797.72;5134980;27;20187;-58
2024/01/18 10:35:07;;;;;;;5.35;4.90;;;;;;;22.35;98.78;151656.09;5135150;27;20675;-59
2024/01/18 10:37:36;;;;;;;5.63;4.60;;;;;;;21.62;100.00;151472.44;5134684;27;20179;-58
2024/01/18 10:40:05;;;;;;;10.68;4.93;;;;;;;21.46;100.00;151431.69;5135180;27;20225;-59
2024/01/18 10:42:34;;;;;;;24.75;7.85;;;;;;;21.31;100.00;151394.69;5134523;27;20621;-59
2024/01/18 10:45:02;;;;;;;10.38;5.57;;;;;;;21.37;100.00;151411.28;5134197;27;20547;-59
2024/01/18 10:47:31;;;;;;;10.55;5.28;;;;;;;21.82;100.00;151523.44;5133980;27;20182;-59
2024/01/18 10:50:00;;;;;;;3.60;3.50;;;;;;;22.22;100.00;151625.50;5134021;27;20191;-59
2024/01/18 10:52:28;;;;;;;3.65;3.40;;;;;;;22.93;94.03;151804.06;5134495;27;20190;-59
2024/01/18 10:54:56;;;;;;;4.65;3.63;;;;;;;;;;5133817;27;20226;-60
2024/01/18 10:57:23;;;;;;;4.05;3.85;;;;;;;23.82;88.70;152028.69;5134865;27;20179;-63
2024/01/18 10:59:52;;;;;;;4.00;3.75;;;;;;;25.34;76.53;152413.19;5134159;27;20183;-59
2024/01/18 11:02:20;;;;;;;3.50;3.40;;;;;;;26.58;68.01;152725.19;5133892;27;20356;-59
2024/01/18 11:04:48;;;;;;;3.97;3.80;;;;;;;27.45;62.87;152946.53;5133623;27;20235;-59
2024/01/18 11:07:16;;;;;;;6.35;4.40;;;;;;;28.56;58.72;153228.19;5134106;27;20179;-58
2024/01/18 11:09:45;;;;;;;10.30;4.63;;;;;;;29.03;55.07;153347.31;5133995;27;20178;-58
2024/01/18 11:12:14;;;;;;;3.63;3.33;;;;;;;30.35;51.10;153681.81;5133757;27;20182;-58
2024/01/18 11:14:43;;;;;;;4.00;3.70;;;;;;;29.32;51.13;153420.38;5133666;27;20242;-57
2024/01/18 11:17:16;;;;;;;3.97;3.78;;;;;;;28.25;55.63;153147.53;5133612;27;20183;-58
2024/01/18 11:19:45;;;;;;;4.82;4.63;;;;;;;28.87;54.28;153305.06;5133736;27;20629;-60